sensor_id;sensor_type;location;lat;lon;timestamp;pressure;altitude;pressure_sealevel;temperature;humidity
60015;BME280;45867;52.480;6.056;2024-03-22T00:00:36;100149.66;;;9.80;100.00
60015;BME280;45867;52.480;6.056;2024-03-22T00:03:01;100145.66;;;9.83;100.00
60015;BME280;45867;52.480;6.056;2024-03-22T00:05:28;100097.44;;;9.56;100.00
60015;BME280;45867;52.480;6.056;2024-03-22T00:07:54;100104.25;;;9.68;100.00
60015;BME280;45867;52.480;6.056;2024-03-22T00:10:19;100102.81;;;9.81;100.00
60015;BME280;45867;52.480;6.056;2024-03-22T00:12:45;100100.13;;;9.86;100.00
60015;BME280;45867;52.480;6.056;2024-03-22T00:15:10;100087.69;;;9.86;100.00
60015;BME280;45867;52.480;6.056;2024-03-22T00:17:36;100083.78;;;9.78;100.00
60015;BME280;45867;52.480;6.056;2024-03-22T00:20:02;100077.09;;;9.86;100.00
60015;BME280;45867;52.480;6.056;2024-03-22T00:22:28;100049.50;;;9.92;100.00
60015;BME280;45867;52.480;6.056;2024-03-22T00:24:53;100056.44;;;9.88;100.00
60015;BME280;45867;52.480;6.056;2024-03-22T00:27:19;100049.91;;;9.81;100.00
60015;BME280;45867;52.480;6.056;2024-03-22T00:29:45;100063.03;;;9.91;100.00
60015;BME280;45867;52.480;6.056;2024-03-22T00:32:10;100054.56;;;9.89;100.00
60015;BME280;45867;52.480;6.056;2024-03-22T00:34:39;100035.28;;;9.88;100.00
60015;BME280;45867;52.480;6.056;2024-03-22T00:37:04;100007.03;;;9.78;100.00
60015;BME280;45867;52.480;6.056;2024-03-22T00:39:30;100015.88;;;9.93;100.00
60015;BME280;45867;52.480;6.056;2024-03-22T00:41:56;99978.50;;;9.75;100.00
60015;BME280;45867;52.480;6.056;2024-03-22T00:44:21;99988.19;;;9.85;100.00
60015;BME280;45867;52.480;6.056;2024-03-22T00:46:47;99980.25;;;9.85;100.00
60015;BME280;45867;52.480;6.056;2024-03-22T00:49:12;99981.81;;;9.86;100.00
60015;BME280;45867;52.480;6.056;2024-03-22T00:51:38;99958.84;;;9.82;100.00
60015;BME280;45867;52.480;6.056;2024-03-22T00:54:04;99961.59;;;9.95;100.00
60015;BME280;45867;52.480;6.056;2024-03-22T00:56:29;99953.66;;;9.95;100.00
60015;BME280;45867;52.480;6.056;2024-03-22T00:58:55;99941.56;;;9.89;100.00
60015;BME280;45867;52.480;6.056;2024-03-22T01:01:20;99939.13;;;9.93;100.00
60015;BME280;45867;52.480;6.056;2024-03-22T01:03:46;99921.59;;;9.78;100.00
60015;BME280;45867;52.480;6.056;2024-03-22T01:06:16;99926.47;;;9.90;100.00
60015;BME280;45867;52.480;6.056;2024-03-22T01:08:41;99906.50;;;9.78;100.00
60015;BME280;45867;52.480;6.056;2024-03-22T01:11:07;99868.78;;;9.68;100.00
60015;BME280;45867;52.480;6.056;2024-03-22T01:13:37;99907.38;;;9.93;100.00
60015;BME280;45867;52.480;6.056;2024-03-22T01:16:03;99868.16;;;9.76;100.00
60015;BME280;45867;52.480;6.056;2024-03-22T01:18:29;99876.56;;;9.83;100.00
60015;BME280;45867;52.480;6.056;2024-03-22T01:20:55;99862.44;;;9.69;100.00
60015;BME280;45867;52.480;6.056;2024-03-22T01:23:20;99829.63;;;9.70;100.00
60015;BME280;45867;52.480;6.056;2024-03-22T01:25:49;99850.09;;;9.83;100.00
60015;BME280;45867;52.480;6.056;2024-03-22T01:28:14;99853.53;;;9.84;100.00
60015;BME280;45867;52.480;6.056;2024-03-22T01:30:42;99844.03;;;9.83;100.00
60015;BME280;45867;52.480;6.056;2024-03-22T01:33:07;99860.19;;;10.00;100.00
60015;BME280;45867;52.480;6.056;2024-03-22T01:35:34;99833.28;;;9.93;100.00
60015;BME280;45867;52.480;6.056;2024-03-22T01:38:00;99823.34;;;9.85;100.00
60015;BME280;45867;52.480;6.056;2024-03-22T01:40:27;99808.25;;;9.85;100.00
60015;BME280;45867;52.480;6.056;2024-03-22T01:42:55;99819.50;;;9.96;100.00
60015;BME280;45867;52.480;6.056;2024-03-22T01:45:24;99819.84;;;10.08;100.00
60015;BME280;45867;52.480;6.056;2024-03-22T01:47:51;99805.38;;;10.00;100.00
60015;BME280;45867;52.480;6.056;2024-03-22T01:50:17;99811.31;;;10.11;100.00
60015;BME280;45867;52.480;6.056;2024-03-22T01:52:43;99805.81;;;10.08;100.00
60015;BME280;45867;52.480;6.056;2024-03-22T01:55:10;99773.63;;;9.82;100.00
60015;BME280;45867;52.480;6.056;2024-03-22T01:57:38;99819.06;;;10.08;100.00
60015;BME280;45867;52.480;6.056;2024-03-22T02:00:05;99792.47;;;9.99;100.00
60015;BME280;45867;52.480;6.056;2024-03-22T02:02:36;99800.47;;;10.13;100.00
60015;BME280;45867;52.480;6.056;2024-03-22T02:05:15;99779.63;;;10.06;100.00
60015;BME280;45867;52.480;6.056;2024-03-22T02:07:42;99778.84;;;10.06;100.00
60015;BME280;45867;52.480;6.056;2024-03-22T02:10:09;99757.81;;;9.95;100.00
60015;BME280;45867;52.480;6.056;2024-03-22T02:12:37;99759.41;;;9.96;100.00
60015;BME280;45867;52.480;6.056;2024-03-22T02:15:03;99754.44;;;10.09;100.00
60015;BME280;45867;52.480;6.056;2024-03-22T02:17:28;99747.88;;;10.06;100.00
60015;BME280;45867;52.480;6.056;2024-03-22T02:19:54;99714.00;;;9.89;100.00
60015;BME280;45867;52.480;6.056;2024-03-22T02:22:19;99733.66;;;10.02;100.00
60015;BME280;45867;52.480;6.056;2024-03-22T02:24:45;99742.94;;;9.99;100.00
60015;BME280;45867;52.480;6.056;2024-03-22T02:27:11;99721.59;;;9.96;100.00
60015;BME280;45867;52.480;6.056;2024-03-22T02:29:37;99736.53;;;10.19;100.00
60015;BME280;45867;52.480;6.056;2024-03-22T02:32:03;99736.34;;;10.16;100.00
60015;BME280;45867;52.480;6.056;2024-03-22T02:34:30;99713.06;;;9.99;100.00
60015;BME280;45867;52.480;6.056;2024-03-22T02:36:59;99726.78;;;10.01;100.00
60015;BME280;45867;52.480;6.056;2024-03-22T02:39:28;99712.34;;;9.93;100.00
60015;BME280;45867;52.480;6.056;2024-03-22T02:41:53;99684.59;;;9.91;100.00
60015;BME280;45867;52.480;6.056;2024-03-22T02:44:22;99698.09;;;10.08;100.00
60015;BME280;45867;52.480;6.056;2024-03-22T02:46:47;99703.19;;;10.05;100.00
60015;BME280;45867;52.480;6.056;2024-03-22T02:49:13;99704.53;;;10.02;100.00
60015;BME280;45867;52.480;6.056;2024-03-22T02:51:39;99680.88;;;9.92;100.00
60015;BME280;45867;52.480;6.056;2024-03-22T02:54:07;99671.47;;;9.86;100.00
60015;BME280;45867;52.480;6.056;2024-03-22T02:56:36;99665.50;;;9.94;100.00
60015;BME280;45867;52.480;6.056;2024-03-22T02:59:01;99667.94;;;9.90;100.00
60015;BME280;45867;52.480;6.056;2024-03-22T03:01:27;99650.81;;;10.02;100.00
60015;BME280;45867;52.480;6.056;2024-03-22T03:03:52;99610.88;;;9.84;100.00
60015;BME280;45867;52.480;6.056;2024-03-22T03:06:18;99604.59;;;9.80;100.00
60015;BME280;45867;52.480;6.056;2024-03-22T03:08:44;99617.00;;;9.98;100.00
60015;BME280;45867;52.480;6.056;2024-03-22T03:11:09;99605.13;;;9.96;100.00
60015;BME280;45867;52.480;6.056;2024-03-22T03:13:35;99578.16;;;9.80;100.00
60015;BME280;45867;52.480;6.056;2024-03-22T03:16:02;99571.97;;;9.85;100.00
60015;BME280;45867;52.480;6.056;2024-03-22T03:18:28;99570.03;;;9.90;100.00
60015;BME280;45867;52.480;6.056;2024-03-22T03:20:54;99568.78;;;10.02;100.00
60015;BME280;45867;52.480;6.056;2024-03-22T03:23:19;99546.03;;;10.00;100.00
60015;BME280;45867;52.480;6.056;2024-03-22T03:25:45;99519.28;;;9.88;100.00
60015;BME280;45867;52.480;6.056;2024-03-22T03:28:13;99532.09;;;9.95;100.00
60015;BME280;45867;52.480;6.056;2024-03-22T03:30:39;99528.88;;;9.98;100.00
60015;BME280;45867;52.480;6.056;2024-03-22T03:33:05;99542.31;;;10.02;100.00
60015;BME280;45867;52.480;6.056;2024-03-22T03:35:33;99540.25;;;9.98;100.00
60015;BME280;45867;52.480;6.056;2024-03-22T03:37:59;99534.75;;;9.95;100.00
60015;BME280;45867;52.480;6.056;2024-03-22T03:40:24;99505.72;;;9.76;100.00
60015;BME280;45867;52.480;6.056;2024-03-22T03:42:50;99523.28;;;9.99;100.00
60015;BME280;45867;52.480;6.056;2024-03-22T03:45:16;99476.03;;;9.79;100.00
60015;BME280;45867;52.480;6.056;2024-03-22T03:47:42;99498.19;;;9.83;100.00
60015;BME280;45867;52.480;6.056;2024-03-22T03:50:08;99512.88;;;9.89;100.00
60015;BME280;45867;52.480;6.056;2024-03-22T03:52:34;99507.22;;;9.96;100.00
60015;BME280;45867;52.480;6.056;2024-03-22T03:54:59;99511.53;;;9.92;100.00
60015;BME280;45867;52.480;6.056;2024-03-22T03:57:25;99485.84;;;9.78;100.00
60015;BME280;45867;52.480;6.056;2024-03-22T03:59:51;99483.69;;;9.81;100.00
60015;BME280;45867;52.480;6.056;2024-03-22T04:02:16;99510.75;;;9.91;100.00
60015;BME280;45867;52.480;6.056;2024-03-22T04:04:43;99462.22;;;9.68;100.00
60015;BME280;45867;52.480;6.056;2024-03-22T04:07:12;99509.38;;;9.94;100.00
60015;BME280;45867;52.480;6.056;2024-03-22T04:09:38;99489.25;;;9.93;100.00
60015;BME280;45867;52.480;6.056;2024-03-22T04:12:04;99494.19;;;9.86;100.00
60015;BME280;45867;52.480;6.056;2024-03-22T04:14:30;99480.84;;;9.91;100.00
60015;BME280;45867;52.480;6.056;2024-03-22T04:16:55;99499.84;;;9.93;100.00
60015;BME280;45867;52.480;6.056;2024-03-22T04:19:21;99499.56;;;9.81;100.00
60015;BME280;45867;52.480;6.056;2024-03-22T04:21:47;99534.56;;;10.05;100.00
60015;BME280;45867;52.480;6.056;2024-03-22T04:24:13;99538.38;;;9.99;100.00
60015;BME280;45867;52.480;6.056;2024-03-22T04:26:38;99514.16;;;9.92;100.00
60015;BME280;45867;52.480;6.056;2024-03-22T04:29:04;99520.44;;;9.96;100.00
60015;BME280;45867;52.480;6.056;2024-03-22T04:31:30;99510.63;;;9.83;100.00
60015;BME280;45867;52.480;6.056;2024-03-22T04:33:56;99547.47;;;9.93;100.00
60015;BME280;45867;52.480;6.056;2024-03-22T04:36:21;99547.69;;;9.96;100.00
60015;BME280;45867;52.480;6.056;2024-03-22T04:38:47;99552.22;;;9.96;100.00
60015;BME280;45867;52.480;6.056;2024-03-22T04:41:12;99554.84;;;9.96;100.00
60015;BME280;45867;52.480;6.056;2024-03-22T04:43:39;99552.78;;;9.93;100.00
60015;BME280;45867;52.480;6.056;2024-03-22T04:46:05;99557.09;;;9.89;100.00
60015;BME280;45867;52.480;6.056;2024-03-22T04:48:31;99531.88;;;9.64;100.00
60015;BME280;45867;52.480;6.056;2024-03-22T04:50:56;99573.34;;;9.82;100.00
60015;BME280;45867;52.480;6.056;2024-03-22T04:53:22;99586.47;;;9.87;100.00
60015;BME280;45867;52.480;6.056;2024-03-22T04:55:49;99597.66;;;9.84;100.00
60015;BME280;45867;52.480;6.056;2024-03-22T04:58:17;99595.19;;;9.74;100.00
60015;BME280;45867;52.480;6.056;2024-03-22T05:00:43;99593.81;;;9.76;100.00
60015;BME280;45867;52.480;6.056;2024-03-22T05:03:13;99611.25;;;9.77;100.00
60015;BME280;45867;52.480;6.056;2024-03-22T05:05:39;99580.47;;;9.68;100.00
60015;BME280;45867;52.480;6.056;2024-03-22T05:08:06;99612.81;;;9.78;100.00
60015;BME280;45867;52.480;6.056;2024-03-22T05:10:34;99614.41;;;9.80;100.00
60015;BME280;45867;52.480;6.056;2024-03-22T05:13:01;99604.78;;;9.70;100.00
60015;BME280;45867;52.480;6.056;2024-03-22T05:15:27;99596.91;;;9.65;100.00
60015;BME280;45867;52.480;6.056;2024-03-22T05:17:53;99624.28;;;9.74;100.00
60015;BME280;45867;52.480;6.056;2024-03-22T05:20:20;99619.75;;;9.61;100.00
60015;BME280;45867;52.480;6.056;2024-03-22T05:22:47;99611.41;;;9.67;100.00
60015;BME280;45867;52.480;6.056;2024-03-22T05:25:14;99624.94;;;9.66;100.00
60015;BME280;45867;52.480;6.056;2024-03-22T05:27:40;99616.66;;;9.53;100.00
60015;BME280;45867;52.480;6.056;2024-03-22T05:30:06;99626.78;;;9.65;100.00
60015;BME280;45867;52.480;6.056;2024-03-22T05:32:33;99625.22;;;9.64;100.00
60015;BME280;45867;52.480;6.056;2024-03-22T05:34:59;99609.44;;;9.59;100.00
60015;BME280;45867;52.480;6.056;2024-03-22T05:37:24;99628.66;;;9.65;100.00
60015;BME280;45867;52.480;6.056;2024-03-22T05:39:53;99578.03;;;9.39;100.00
60015;BME280;45867;52.480;6.056;2024-03-22T05:42:18;99625.59;;;9.58;100.00
60015;BME280;45867;52.480;6.056;2024-03-22T05:44:45;99650.19;;;9.58;100.00
60015;BME280;45867;52.480;6.056;2024-03-22T05:47:11;99590.56;;;9.33;100.00
60015;BME280;45867;52.480;6.056;2024-03-22T05:49:39;99594.63;;;9.25;100.00
60015;BME280;45867;52.480;6.056;2024-03-22T05:52:12;99601.97;;;9.28;100.00
60015;BME280;45867;52.480;6.056;2024-03-22T05:54:38;99635.31;;;9.43;100.00
60015;BME280;45867;52.480;6.056;2024-03-22T05:57:07;99665.41;;;9.66;100.00
60015;BME280;45867;52.480;6.056;2024-03-22T05:59:33;99661.56;;;9.59;100.00
60015;BME280;45867;52.480;6.056;2024-03-22T06:02:01;99673.75;;;9.54;100.00
60015;BME280;45867;52.480;6.056;2024-03-22T06:04:27;99665.75;;;9.60;100.00
60015;BME280;45867;52.480;6.056;2024-03-22T06:06:52;99665.34;;;9.52;100.00
60015;BME280;45867;52.480;6.056;2024-03-22T06:09:19;99657.63;;;9.37;100.00
60015;BME280;45867;52.480;6.056;2024-03-22T06:11:45;99670.84;;;9.37;100.00
60015;BME280;45867;52.480;6.056;2024-03-22T06:14:13;99662.91;;;9.37;100.00
60015;BME280;45867;52.480;6.056;2024-03-22T06:16:39;99688.66;;;9.50;100.00
60015;BME280;45867;52.480;6.056;2024-03-22T06:19:05;99680.22;;;9.48;100.00
60015;BME280;45867;52.480;6.056;2024-03-22T06:21:34;99667.13;;;9.38;100.00
60015;BME280;45867;52.480;6.056;2024-03-22T06:23:59;99634.34;;;9.20;100.00
60015;BME280;45867;52.480;6.056;2024-03-22T06:26:28;99692.22;;;9.60;100.00
60015;BME280;45867;52.480;6.056;2024-03-22T06:28:54;99641.31;;;9.30;100.00
60015;BME280;45867;52.480;6.056;2024-03-22T06:31:20;99673.94;;;9.44;100.00
60015;BME280;45867;52.480;6.056;2024-03-22T06:33:47;99650.06;;;9.30;100.00
60015;BME280;45867;52.480;6.056;2024-03-22T06:36:20;99691.88;;;9.66;100.00
60015;BME280;45867;52.480;6.056;2024-03-22T06:38:46;99665.84;;;9.36;100.00
60015;BME280;45867;52.480;6.056;2024-03-22T06:41:12;99713.59;;;9.63;100.00
60015;BME280;45867;52.480;6.056;2024-03-22T06:43:38;99682.72;;;9.40;100.00
60015;BME280;45867;52.480;6.056;2024-03-22T06:46:03;99711.09;;;9.53;100.00
60015;BME280;45867;52.480;6.056;2024-03-22T06:48:29;99705.94;;;9.43;100.00
60015;BME280;45867;52.480;6.056;2024-03-22T06:50:57;99712.72;;;9.49;100.00
60015;BME280;45867;52.480;6.056;2024-03-22T06:53:23;99705.59;;;9.49;100.00
60015;BME280;45867;52.480;6.056;2024-03-22T06:55:49;99729.47;;;9.63;100.00
60015;BME280;45867;52.480;6.056;2024-03-22T06:58:16;99717.38;;;9.57;100.00
60015;BME280;45867;52.480;6.056;2024-03-22T07:00:41;99701.44;;;9.62;100.00
60015;BME280;45867;52.480;6.056;2024-03-22T07:03:07;99717.78;;;9.83;100.00
60015;BME280;45867;52.480;6.056;2024-03-22T07:05:32;99730.44;;;9.86;100.00
60015;BME280;45867;52.480;6.056;2024-03-22T07:08:02;99713.94;;;9.75;100.00
60015;BME280;45867;52.480;6.056;2024-03-22T07:10:31;99757.63;;;9.92;100.00
60015;BME280;45867;52.480;6.056;2024-03-22T07:12:57;99767.69;;;9.90;100.00
60015;BME280;45867;52.480;6.056;2024-03-22T07:15:23;99763.91;;;9.96;100.00
60015;BME280;45867;52.480;6.056;2024-03-22T07:17:49;99766.06;;;9.94;100.00
60015;BME280;45867;52.480;6.056;2024-03-22T07:20:15;99774.06;;;9.89;100.00
60015;BME280;45867;52.480;6.056;2024-03-22T07:22:41;99773.28;;;9.88;100.00
60015;BME280;45867;52.480;6.056;2024-03-22T07:25:06;99783.09;;;9.88;100.00
60015;BME280;45867;52.480;6.056;2024-03-22T07:27:32;99789.38;;;9.92;100.00
60015;BME280;45867;52.480;6.056;2024-03-22T07:29:58;99782.59;;;9.86;100.00
60015;BME280;45867;52.480;6.056;2024-03-22T07:32:23;99802.53;;;9.97;100.00
60015;BME280;45867;52.480;6.056;2024-03-22T07:34:49;99790.22;;;9.87;100.00
60015;BME280;45867;52.480;6.056;2024-03-22T07:37:14;99792.72;;;9.97;100.00
60015;BME280;45867;52.480;6.056;2024-03-22T07:39:40;99816.28;;;9.99;100.00
60015;BME280;45867;52.480;6.056;2024-03-22T07:42:06;99803.38;;;9.92;100.00
60015;BME280;45867;52.480;6.056;2024-03-22T07:44:32;99779.50;;;9.78;100.00
60015;BME280;45867;52.480;6.056;2024-03-22T07:46:57;99802.81;;;9.95;100.00
60015;BME280;45867;52.480;6.056;2024-03-22T07:49:23;99823.91;;;10.00;100.00
60015;BME280;45867;52.480;6.056;2024-03-22T07:51:48;99806.03;;;9.73;100.00
60015;BME280;45867;52.480;6.056;2024-03-22T07:54:14;99851.47;;;9.99;100.00
60015;BME280;45867;52.480;6.056;2024-03-22T07:56:39;99825.66;;;9.91;100.00
60015;BME280;45867;52.480;6.056;2024-03-22T07:59:05;99821.28;;;10.00;100.00
60015;BME280;45867;52.480;6.056;2024-03-22T08:01:31;99819.13;;;10.03;100.00
60015;BME280;45867;52.480;6.056;2024-03-22T08:03:57;99818.47;;;10.11;100.00
60015;BME280;45867;52.480;6.056;2024-03-22T08:06:25;99829.19;;;10.19;100.00
60015;BME280;45867;52.480;6.056;2024-03-22T08:08:51;99871.59;;;10.38;100.00
60015;BME280;45867;52.480;6.056;2024-03-22T08:11:17;99833.06;;;10.08;100.00
60015;BME280;45867;52.480;6.056;2024-03-22T08:13:48;99878.94;;;10.22;100.00
60015;BME280;45867;52.480;6.056;2024-03-22T08:16:14;99916.50;;;10.25;100.00
60015;BME280;45867;52.480;6.056;2024-03-22T08:18:40;99949.34;;;10.29;100.00
60015;BME280;45867;52.480;6.056;2024-03-22T08:21:06;99952.50;;;10.26;100.00
60015;BME280;45867;52.480;6.056;2024-03-22T08:23:32;99969.31;;;10.16;100.00
60015;BME280;45867;52.480;6.056;2024-03-22T08:26:06;99974.81;;;10.19;100.00
60015;BME280;45867;52.480;6.056;2024-03-22T08:28:32;99923.09;;;9.84;100.00
60015;BME280;45867;52.480;6.056;2024-03-22T08:31:04;99927.81;;;9.87;100.00
60015;BME280;45867;52.480;6.056;2024-03-22T08:33:30;99932.91;;;9.84;100.00
60015;BME280;45867;52.480;6.056;2024-03-22T08:35:56;99965.78;;;10.02;100.00
60015;BME280;45867;52.480;6.056;2024-03-22T08:38:22;99938.97;;;9.84;100.00
60015;BME280;45867;52.480;6.056;2024-03-22T08:40:48;99900.84;;;9.66;100.00
60015;BME280;45867;52.480;6.056;2024-03-22T08:43:14;99877.81;;;9.43;100.00
60015;BME280;45867;52.480;6.056;2024-03-22T08:45:43;99865.94;;;9.64;100.00
60015;BME280;45867;52.480;6.056;2024-03-22T08:48:12;99846.53;;;9.50;100.00
60015;BME280;45867;52.480;6.056;2024-03-22T08:50:37;99795.47;;;9.30;100.00
60015;BME280;45867;52.480;6.056;2024-03-22T08:53:03;99775.47;;;9.43;100.00
60015;BME280;45867;52.480;6.056;2024-03-22T08:55:29;99765.03;;;9.52;100.00
60015;BME280;45867;52.480;6.056;2024-03-22T08:57:54;99725.03;;;9.40;100.00
60015;BME280;45867;52.480;6.056;2024-03-22T09:00:22;99681.94;;;9.39;100.00
60015;BME280;45867;52.480;6.056;2024-03-22T09:02:53;99657.69;;;9.32;100.00
60015;BME280;45867;52.480;6.056;2024-03-22T09:05:32;99621.84;;;9.26;100.00
60015;BME280;45867;52.480;6.056;2024-03-22T09:08:03;99576.59;;;9.27;100.00
60015;BME280;45867;52.480;6.056;2024-03-22T09:10:29;99568.25;;;9.20;100.00
60015;BME280;45867;52.480;6.056;2024-03-22T09:13:05;99518.28;;;9.05;100.00
60015;BME280;45867;52.480;6.056;2024-03-22T09:15:32;99537.13;;;9.17;100.00
60015;BME280;45867;52.480;6.056;2024-03-22T09:17:57;99504.53;;;9.22;100.00
60015;BME280;45867;52.480;6.056;2024-03-22T09:20:31;99481.66;;;8.98;100.00
60015;BME280;45867;52.480;6.056;2024-03-22T09:23:00;99471.22;;;8.88;100.00
60015;BME280;45867;52.480;6.056;2024-03-22T09:25:29;99483.06;;;9.09;100.00
60015;BME280;45867;52.480;6.056;2024-03-22T09:27:57;99474.56;;;9.13;100.00
60015;BME280;45867;52.480;6.056;2024-03-22T09:30:26;99426.38;;;9.02;100.00
60015;BME280;45867;52.480;6.056;2024-03-22T09:32:52;99431.56;;;9.07;100.00
60015;BME280;45867;52.480;6.056;2024-03-22T09:35:18;99416.91;;;9.15;100.00
60015;BME280;45867;52.480;6.056;2024-03-22T09:37:46;99365.69;;;8.97;100.00
60015;BME280;45867;52.480;6.056;2024-03-22T09:40:12;99352.28;;;8.93;100.00
60015;BME280;45867;52.480;6.056;2024-03-22T09:42:38;99355.81;;;9.16;100.00
60015;BME280;45867;52.480;6.056;2024-03-22T09:45:11;99326.03;;;8.97;100.00
60015;BME280;45867;52.480;6.056;2024-03-22T09:47:36;99327.34;;;9.13;100.00
60015;BME280;45867;52.480;6.056;2024-03-22T09:50:12;99303.84;;;9.11;100.00
60015;BME280;45867;52.480;6.056;2024-03-22T09:52:38;99294.84;;;9.13;100.00
60015;BME280;45867;52.480;6.056;2024-03-22T09:55:07;99276.53;;;9.16;100.00
60015;BME280;45867;52.480;6.056;2024-03-22T09:57:38;99285.34;;;9.39;100.00
60015;BME280;45867;52.480;6.056;2024-03-22T10:00:06;99262.41;;;9.48;100.00
60015;BME280;45867;52.480;6.056;2024-03-22T10:02:39;99231.97;;;9.37;100.00
60015;BME280;45867;52.480;6.056;2024-03-22T10:05:05;99223.09;;;9.33;100.00
60015;BME280;45867;52.480;6.056;2024-03-22T10:07:32;99226.97;;;9.36;100.00
60015;BME280;45867;52.480;6.056;2024-03-22T10:10:00;99188.84;;;9.14;100.00
60015;BME280;45867;52.480;6.056;2024-03-22T10:12:26;99234.13;;;9.35;100.00
60015;BME280;45867;52.480;6.056;2024-03-22T10:14:55;99231.88;;;9.42;100.00
60015;BME280;45867;52.480;6.056;2024-03-22T10:17:26;99183.47;;;9.05;100.00
60015;BME280;45867;52.480;6.056;2024-03-22T10:19:52;99194.59;;;9.16;100.00
60015;BME280;45867;52.480;6.056;2024-03-22T10:22:18;99216.00;;;9.42;100.00
60015;BME280;45867;52.480;6.056;2024-03-22T10:24:44;99194.00;;;9.33;100.00
60015;BME280;45867;52.480;6.056;2024-03-22T10:27:10;99172.88;;;9.33;100.00
60015;BME280;45867;52.480;6.056;2024-03-22T10:29:47;99180.63;;;9.52;100.00
60015;BME280;45867;52.480;6.056;2024-03-22T10:32:12;99171.44;;;9.49;100.00
60015;BME280;45867;52.480;6.056;2024-03-22T10:34:38;99121.78;;;9.24;100.00
60015;BME280;45867;52.480;6.056;2024-03-22T10:37:05;99101.88;;;9.26;100.00
60015;BME280;45867;52.480;6.056;2024-03-22T10:39:33;99099.50;;;9.39;100.00
60015;BME280;45867;52.480;6.056;2024-03-22T10:42:03;99097.94;;;9.38;100.00
60015;BME280;45867;52.480;6.056;2024-03-22T10:44:32;99118.56;;;9.49;100.00
60015;BME280;45867;52.480;6.056;2024-03-22T10:47:00;99118.06;;;9.47;100.00
60015;BME280;45867;52.480;6.056;2024-03-22T10:49:31;99100.47;;;9.43;100.00
60015;BME280;45867;52.480;6.056;2024-03-22T10:52:04;99141.22;;;9.64;100.00
60015;BME280;45867;52.480;6.056;2024-03-22T10:54:43;99117.66;;;9.54;100.00
60015;BME280;45867;52.480;6.056;2024-03-22T10:57:12;99122.69;;;9.42;100.00
60015;BME280;45867;52.480;6.056;2024-03-22T10:59:41;99115.22;;;9.44;100.00
60015;BME280;45867;52.480;6.056;2024-03-22T11:02:06;99157.84;;;9.65;100.00
60015;BME280;45867;52.480;6.056;2024-03-22T11:04:35;99151.41;;;9.57;100.00
60015;BME280;45867;52.480;6.056;2024-03-22T11:07:19;99106.19;;;9.36;100.00
60015;BME280;45867;52.480;6.056;2024-03-22T11:09:52;99117.53;;;9.59;100.00
60015;BME280;45867;52.480;6.056;2024-03-22T11:12:18;99111.84;;;9.66;100.00
60015;BME280;45867;52.480;6.056;2024-03-22T11:14:44;99094.56;;;9.68;100.00
60015;BME280;45867;52.480;6.056;2024-03-22T11:17:09;99091.97;;;9.77;100.00
60015;BME280;45867;52.480;6.056;2024-03-22T11:19:35;99078.16;;;9.80;100.00
60015;BME280;45867;52.480;6.056;2024-03-22T11:22:00;99068.28;;;9.72;100.00
60015;BME280;45867;52.480;6.056;2024-03-22T11:24:26;99081.56;;;9.81;100.00
60015;BME280;45867;52.480;6.056;2024-03-22T11:26:56;99085.50;;;9.92;100.00
60015;BME280;45867;52.480;6.056;2024-03-22T11:29:21;99098.91;;;9.95;100.00
60015;BME280;45867;52.480;6.056;2024-03-22T11:31:47;99067.97;;;9.96;100.00
60015;BME280;45867;52.480;6.056;2024-03-22T11:34:13;99092.09;;;10.03;100.00
60015;BME280;45867;52.480;6.056;2024-03-22T11:36:38;99070.41;;;9.92;100.00
60015;BME280;45867;52.480;6.056;2024-03-22T11:39:04;99073.34;;;10.22;100.00
60015;BME280;45867;52.480;6.056;2024-03-22T11:41:32;99071.66;;;9.95;100.00
60015;BME280;45867;52.480;6.056;2024-03-22T11:44:00;99055.06;;;9.72;100.00
60015;BME280;45867;52.480;6.056;2024-03-22T11:46:28;99098.22;;;9.81;100.00
60015;BME280;45867;52.480;6.056;2024-03-22T11:48:58;99062.03;;;9.68;100.00
60015;BME280;45867;52.480;6.056;2024-03-22T11:51:27;99108.97;;;9.85;100.00
60015;BME280;45867;52.480;6.056;2024-03-22T11:53:53;99113.22;;;9.94;100.00
60015;BME280;45867;52.480;6.056;2024-03-22T11:56:39;99074.63;;;9.93;100.00
60015;BME280;45867;52.480;6.056;2024-03-22T11:59:06;99098.13;;;9.95;100.00
60015;BME280;45867;52.480;6.056;2024-03-22T12:01:32;99080.69;;;9.94;100.00
60015;BME280;45867;52.480;6.056;2024-03-22T12:03:58;99073.34;;;9.82;100.00
60015;BME280;45867;52.480;6.056;2024-03-22T12:06:25;99085.09;;;9.98;100.00
60015;BME280;45867;52.480;6.056;2024-03-22T12:08:52;99063.91;;;9.67;100.00
60015;BME280;45867;52.480;6.056;2024-03-22T12:11:17;99063.75;;;9.64;100.00
60015;BME280;45867;52.480;6.056;2024-03-22T12:13:44;99098.94;;;9.73;100.00
60015;BME280;45867;52.480;6.056;2024-03-22T12:16:11;99099.50;;;9.92;100.00
60015;BME280;45867;52.480;6.056;2024-03-22T12:18:36;99077.59;;;10.00;100.00
60015;BME280;45867;52.480;6.056;2024-03-22T12:21:02;99083.69;;;10.01;100.00
60015;BME280;45867;52.480;6.056;2024-03-22T12:23:30;99055.72;;;9.77;100.00
60015;BME280;45867;52.480;6.056;2024-03-22T12:25:59;99079.13;;;9.93;100.00
60015;BME280;45867;52.480;6.056;2024-03-22T12:28:24;99087.41;;;10.00;100.00
60015;BME280;45867;52.480;6.056;2024-03-22T12:30:51;99063.22;;;9.84;100.00
60015;BME280;45867;52.480;6.056;2024-03-22T12:33:17;99053.97;;;9.73;100.00
60015;BME280;45867;52.480;6.056;2024-03-22T12:35:43;99093.81;;;9.99;100.00
60015;BME280;45867;52.480;6.056;2024-03-22T12:38:09;99049.59;;;9.68;100.00
60015;BME280;45867;52.480;6.056;2024-03-22T12:40:42;99071.75;;;9.81;100.00
60015;BME280;45867;52.480;6.056;2024-03-22T12:43:09;99061.72;;;10.00;100.00
60015;BME280;45867;52.480;6.056;2024-03-22T12:45:36;99066.63;;;9.85;100.00
60015;BME280;45867;52.480;6.056;2024-03-22T12:48:01;99068.22;;;9.86;100.00
60015;BME280;45867;52.480;6.056;2024-03-22T12:50:27;99057.59;;;9.77;100.00
60015;BME280;45867;52.480;6.056;2024-03-22T12:52:53;99055.47;;;9.88;100.00
60015;BME280;45867;52.480;6.056;2024-03-22T12:55:19;99034.53;;;9.69;100.00